Time;durP1;ratioP1;P1;durP2;ratioP2;P2;SDS_P1;SDS_P2;PMS_P1;PMS_P2;Temp;Humidity;BMP_temperature;BMP_pressure;BME280_temperature;BME280_humidity;BME280_pressure;Samples;Min_cycle;Max_cycle;Signal;HPM_P1;HPM_P2
2023/12/08 00:01:47;;;;;;;;;;;21.70;34.20;;;;;;5034896;28;20016;-53
2023/12/08 00:04:15;;;;;;;;;;;21.70;34.20;;;;;;5034946;28;19925;-53
2023/12/08 00:06:42;;;;;;;;;;;21.70;34.20;;;;;;5016525;28;19981;-52
2023/12/08 00:09:09;;;;;;;;;;;21.70;34.20;;;;;;5014855;28;19972;-54
2023/12/08 00:11:37;;;;;;;;;;;21.70;34.20;;;;;;5015310;28;20294;-48
2023/12/08 00:14:04;;;;;;;;;;;21.70;34.20;;;;;;5015090;28;19926;-50
2023/12/08 00:16:31;;;;;;;;;;;21.70;34.20;;;;;;5014989;28;20413;-49
2023/12/08 00:18:58;;;;;;;;;;;21.70;34.20;;;;;;4997730;28;19926;-51
2023/12/08 00:21:25;;;;;;;;;;;21.70;34.20;;;;;;5014838;28;19991;-49
2023/12/08 00:23:52;;;;;;;;;;;21.70;34.20;;;;;;5014730;28;19968;-49
2023/12/08 00:26:19;;;;;;;;;;;21.70;34.20;;;;;;5014832;28;19972;-48
2023/12/08 00:28:46;;;;;;;;;;;21.70;34.20;;;;;;5014958;28;20341;-49
2023/12/08 00:31:13;;;;;;;;;;;21.60;34.20;;;;;;5014663;28;19929;-48
2023/12/08 00:33:41;;;;;;;;;;;21.70;34.20;;;;;;5014518;28;20032;-51
2023/12/08 00:36:18;;;;;;;;;;;21.70;34.20;;;;;;5014270;28;20020;-52
2023/12/08 00:38:45;;;;;;;;;;;21.70;34.20;;;;;;5014678;28;19929;-52
2023/12/08 00:41:12;;;;;;;;;;;21.60;34.20;;;;;;5013990;28;20024;-53
2023/12/08 00:43:39;;;;;;;;;;;21.60;34.20;;;;;;5014640;28;20307;-52
2023/12/08 00:46:08;;;;;;;;;;;21.60;34.20;;;;;;5014476;28;20379;-52
2023/12/08 00:48:35;;;;;;;;;;;21.60;34.20;;;;;;5014169;28;20371;-54
2023/12/08 00:51:03;;;;;;;;;;;21.60;34.20;;;;;;5014436;28;19925;-57
2023/12/08 00:53:30;;;;;;;;;;;21.60;34.20;;;;;;5014423;28;20338;-52
2023/12/08 00:55:57;;;;;;;;;;;21.60;34.20;;;;;;5014211;28;19925;-54
2023/12/08 00:58:24;;;;;;;;;;;21.60;34.20;;;;;;5014238;28;19956;-54
2023/12/08 01:00:51;;;;;;;;;;;21.60;34.10;;;;;;5014090;28;20327;-54
2023/12/08 01:03:18;;;;;;;;;;;21.60;34.00;;;;;;5014124;28;19930;-53
2023/12/08 01:05:45;;;;;;;;;;;21.60;34.00;;;;;;5003119;28;19932;-54
2023/12/08 01:08:12;;;;;;;;;;;21.60;33.90;;;;;;4994511;28;19929;-49
2023/12/08 01:10:39;;;;;;;;;;;21.60;33.90;;;;;;4994439;28;20012;-48
2023/12/08 01:13:06;;;;;;;;;;;21.60;33.90;;;;;;4994509;28;19949;-54
2023/12/08 01:15:33;;;;;;;;;;;21.60;33.90;;;;;;4994019;28;20379;-52
2023/12/08 01:18:00;;;;;;;;;;;21.60;33.80;;;;;;4994637;28;20006;-50
2023/12/08 01:20:27;;;;;;;;;;;21.60;33.80;;;;;;4994091;28;19980;-49
2023/12/08 01:22:54;;;;;;;;;;;21.60;33.80;;;;;;4994260;28;20363;-54
2023/12/08 01:25:21;;;;;;;;;;;21.60;33.80;;;;;;4994306;28;19933;-53
2023/12/08 01:27:48;;;;;;;;;;;21.60;33.90;;;;;;4994348;28;19925;-50
2023/12/08 01:30:15;;;;;;;;;;;21.60;33.90;;;;;;4994249;28;20323;-52
2023/12/08 01:32:42;;;;;;;;;;;21.60;33.80;;;;;;4994001;28;19926;-50
2023/12/08 01:35:09;;;;;;;;;;;21.60;33.90;;;;;;4994043;28;19932;-53
2023/12/08 01:37:36;;;;;;;;;;;21.60;33.90;;;;;;4993968;28;19925;-53
2023/12/08 01:40:04;;;;;;;;;;;21.60;33.90;;;;;;4994340;28;19961;-51
2023/12/08 01:42:31;;;;;;;;;;;21.50;33.80;;;;;;4994226;28;19932;-53
2023/12/08 01:44:58;;;;;;;;;;;21.60;33.90;;;;;;4994219;28;19969;-50
2023/12/08 01:47:25;;;;;;;;;;;21.50;33.90;;;;;;4976462;28;20286;-49
2023/12/08 01:49:55;;;;;;;;;;;21.50;33.80;;;;;;4993345;28;20282;-52
2023/12/08 01:52:22;;;;;;;;;;;21.50;33.80;;;;;;4993307;28;19926;-54
2023/12/08 01:54:53;;;;;;;;;;;21.50;33.90;;;;;;5020356;28;20346;-54
2023/12/08 01:57:20;;;;;;;;;;;21.50;33.90;;;;;;5032928;28;20295;-54
2023/12/08 01:59:48;;;;;;;;;;;21.50;33.90;;;;;;5014074;28;20005;-49
2023/12/08 02:02:15;;;;;;;;;;;21.50;33.90;;;;;;4994105;28;20008;-51
2023/12/08 02:04:42;;;;;;;;;;;21.50;33.90;;;;;;4995876;28;20280;-53
2023/12/08 02:07:10;;;;;;;;;;;21.50;33.90;;;;;;5013196;28;19925;-55
2023/12/08 02:09:37;;;;;;;;;;;21.50;33.80;;;;;;5013180;28;19926;-55
2023/12/08 02:12:04;;;;;;;;;;;21.50;33.90;;;;;;5013387;28;20037;-55
2023/12/08 02:14:32;;;;;;;;;;;21.50;33.90;;;;;;5013560;28;19925;-54
2023/12/08 02:17:02;;;;;;;;;;;21.50;33.80;;;;;;5024160;28;19971;-52
2023/12/08 02:19:30;;;;;;;;;;;21.50;33.80;;;;;;5032883;28;20012;-53
2023/12/08 02:21:57;;;;;;;;;;;21.50;33.90;;;;;;5033114;28;19956;-53
2023/12/08 02:24:24;;;;;;;;;;;21.50;33.90;;;;;;5032815;28;19929;-55
2023/12/08 02:26:51;;;;;;;;;;;21.50;33.90;;;;;;5032922;28;19980;-55
2023/12/08 02:29:18;;;;;;;;;;;21.50;33.90;;;;;;5032645;28;19929;-53
2023/12/08 02:31:55;;;;;;;;;;;21.40;33.80;;;;;;5032650;28;20259;-55
2023/12/08 02:34:25;;;;;;;;;;;21.40;33.80;;;;;;5032458;28;20465;-53
2023/12/08 02:36:53;;;;;;;;;;;21.40;33.80;;;;;;5032649;28;19958;-53
2023/12/08 02:39:21;;;;;;;;;;;21.40;33.80;;;;;;5032464;28;19933;-53
2023/12/08 02:41:48;;;;;;;;;;;21.40;33.80;;;;;;5032999;28;20020;-55
2023/12/08 02:44:15;;;;;;;;;;;21.40;33.80;;;;;;5033102;28;20000;-52
2023/12/08 02:46:42;;;;;;;;;;;21.40;33.70;;;;;;5032290;28;20366;-55
2023/12/08 02:49:09;;;;;;;;;;;21.40;33.70;;;;;;5032595;28;20387;-53
2023/12/08 02:51:37;;;;;;;;;;;21.40;33.60;;;;;;5032953;28;19925;-53
2023/12/08 02:54:04;;;;;;;;;;;21.40;33.60;;;;;;5032743;28;19968;-55
2023/12/08 02:56:31;;;;;;;;;;;21.40;33.60;;;;;;5032492;28;20020;-54
2023/12/08 02:58:58;;;;;;;;;;;21.40;33.50;;;;;;5032590;28;19925;-54
2023/12/08 03:01:25;;;;;;;;;;;21.40;33.60;;;;;;5014920;28;19937;-54
2023/12/08 03:03:52;;;;;;;;;;;21.40;33.50;;;;;;5034096;28;19931;-55
2023/12/08 03:06:19;;;;;;;;;;;21.40;33.50;;;;;;5021158;28;20275;-52
2023/12/08 03:08:46;;;;;;;;;;;21.40;33.50;;;;;;5016316;28;19929;-52
2023/12/08 03:11:13;;;;;;;;;;;21.40;33.50;;;;;;5015808;28;20449;-54
2023/12/08 03:13:40;;;;;;;;;;;21.40;33.50;;;;;;5013988;28;20041;-53
2023/12/08 03:16:07;;;;;;;;;;;21.40;33.60;;;;;;4994203;28;19930;-55
2023/12/08 03:18:34;;;;;;;;;;;21.40;33.60;;;;;;4995282;28;19969;-56
2023/12/08 03:21:01;;;;;;;;;;;21.40;33.60;;;;;;4996394;28;19934;-55
2023/12/08 03:23:28;;;;;;;;;;;21.40;33.60;;;;;;4995916;28;19932;-55
2023/12/08 03:25:55;;;;;;;;;;;21.40;33.60;;;;;;4996392;28;19930;-55
2023/12/08 03:28:22;;;;;;;;;;;21.40;33.60;;;;;;4996509;28;19926;-55
2023/12/08 03:30:49;;;;;;;;;;;21.40;33.60;;;;;;4996390;28;19969;-56
2023/12/08 03:33:16;;;;;;;;;;;21.30;33.60;;;;;;4996272;28;19933;-55
2023/12/08 03:35:43;;;;;;;;;;;21.30;33.50;;;;;;4995577;28;19925;-52
2023/12/08 03:38:10;;;;;;;;;;;21.30;33.50;;;;;;4996562;28;19972;-52
2023/12/08 03:40:37;;;;;;;;;;;21.30;33.50;;;;;;4996290;28;19984;-52
2023/12/08 03:43:04;;;;;;;;;;;21.30;33.50;;;;;;4995906;28;19926;-55
2023/12/08 03:45:32;;;;;;;;;;;21.30;33.50;;;;;;4996340;28;19965;-59
2023/12/08 03:47:59;;;;;;;;;;;21.30;33.50;;;;;;4996131;28;19932;-52
2023/12/08 03:50:26;;;;;;;;;;;21.30;33.50;;;;;;4995968;28;19925;-52
2023/12/08 03:52:54;;;;;;;;;;;21.30;33.50;;;;;;4995823;28;20020;-55
2023/12/08 03:55:22;;;;;;;;;;;21.30;33.50;;;;;;4995488;28;19933;-53
2023/12/08 03:57:50;;;;;;;;;;;21.30;33.50;;;;;;4996106;28;20032;-55
2023/12/08 04:00:17;;;;;;;;;;;21.30;33.50;;;;;;4995979;28;20335;-53
2023/12/08 04:02:44;;;;;;;;;;;21.30;33.50;;;;;;4995964;28;19926;-55
2023/12/08 04:05:11;;;;;;;;;;;21.30;33.50;;;;;;4984395;28;19926;-52
2023/12/08 04:07:39;;;;;;;;;;;21.30;33.50;;;;;;5015170;28;19925;-58
2023/12/08 04:10:06;;;;;;;;;;;21.30;33.50;;;;;;5015530;28;19976;-53
2023/12/08 04:12:33;;;;;;;;;;;21.20;33.40;;;;;;5014802;28;19932;-52
2023/12/08 04:15:00;;;;;;;;;;;21.20;33.40;;;;;;4997092;28;20004;-52
2023/12/08 04:17:27;;;;;;;;;;;21.20;33.40;;;;;;5015328;28;19925;-54
2023/12/08 04:19:54;;;;;;;;;;;21.20;33.40;;;;;;5014978;28;20342;-57
2023/12/08 04:22:21;;;;;;;;;;;21.20;33.40;;;;;;4997375;28;19932;-55
2023/12/08 04:24:48;;;;;;;;;;;21.20;33.40;;;;;;5016281;28;19972;-56
2023/12/08 04:27:15;;;;;;;;;;;21.20;33.40;;;;;;5034142;28;19929;-55
2023/12/08 04:29:42;;;;;;;;;;;21.20;33.30;;;;;;5034599;28;19925;-57
2023/12/08 04:32:09;;;;;;;;;;;21.20;33.30;;;;;;5033977;28;19925;-63
2023/12/08 04:34:36;;;;;;;;;;;21.20;33.30;;;;;;5034491;28;20020;-53
2023/12/08 04:37:04;;;;;;;;;;;21.20;33.30;;;;;;5034538;28;19932;-55
2023/12/08 04:39:31;;;;;;;;;;;21.20;33.10;;;;;;5034688;28;19933;-54
2023/12/08 04:41:58;;;;;;;;;;;21.20;33.00;;;;;;5034032;28;20367;-51
2023/12/08 04:44:25;;;;;;;;;;;21.20;33.00;;;;;;5034648;28;19964;-51
2023/12/08 04:46:52;;;;;;;;;;;21.20;33.10;;;;;;5034541;28;19929;-54
2023/12/08 04:49:20;;;;;;;;;;;21.20;33.10;;;;;;5034055;28;19936;-53
2023/12/08 04:51:47;;;;;;;;;;;21.20;33.10;;;;;;5034311;28;19925;-51
2023/12/08 04:54:14;;;;;;;;;;;21.20;33.10;;;;;;5034184;28;20428;-52
2023/12/08 04:56:41;;;;;;;;;;;21.20;33.10;;;;;;5033750;28;19968;-51
2023/12/08 04:59:08;;;;;;;;;;;21.20;33.00;;;;;;5034273;28;19929;-50
2023/12/08 05:01:35;;;;;;;;;;;21.30;33.10;;;;;;5034102;28;19935;-48
2023/12/08 05:04:03;;;;;;;;;;;21.30;33.00;;;;;;5033935;28;20015;-49
2023/12/08 05:06:30;;;;;;;;;;;21.30;33.00;;;;;;5017413;28;20295;-51
2023/12/08 05:08:57;;;;;;;;;;;21.40;33.00;;;;;;5013781;28;19925;-52
2023/12/08 05:11:24;;;;;;;;;;;21.40;32.90;;;;;;5014186;28;19957;-52
2023/12/08 05:13:51;;;;;;;;;;;21.40;32.80;;;;;;5014079;28;19929;-48
2023/12/08 05:16:18;;;;;;;;;;;21.50;32.80;;;;;;5013709;28;19925;-52
2023/12/08 05:18:45;;;;;;;;;;;21.50;32.70;;;;;;5014151;28;20282;-50
2023/12/08 05:21:12;;;;;;;;;;;21.50;32.60;;;;;;5013595;28;19925;-53
2023/12/08 05:23:39;;;;;;;;;;;21.60;32.50;;;;;;4996373;28;19933;-50
2023/12/08 05:26:07;;;;;;;;;;;21.70;32.50;;;;;;5013840;28;19937;-49
2023/12/08 05:28:34;;;;;;;;;;;21.70;32.40;;;;;;5014112;28;20359;-48
2023/12/08 05:31:02;;;;;;;;;;;21.80;32.30;;;;;;5013950;28;19932;-50
2023/12/08 05:33:29;;;;;;;;;;;21.80;32.20;;;;;;5013537;28;19925;-51
2023/12/08 05:35:57;;;;;;;;;;;21.90;32.20;;;;;;5013421;28;19961;-50
2023/12/08 05:38:25;;;;;;;;;;;21.90;32.10;;;;;;5029379;28;19971;-50
2023/12/08 05:40:52;;;;;;;;;;;21.90;32.00;;;;;;5033105;28;19929;-51
2023/12/08 05:43:19;;;;;;;;;;;21.90;31.90;;;;;;5031019;28;19929;-49
2023/12/08 05:45:46;;;;;;;;;;;22.00;31.90;;;;;;5032954;28;19972;-49
2023/12/08 05:48:13;;;;;;;;;;;22.00;31.80;;;;;;5032933;28;20016;-48
2023/12/08 05:50:40;;;;;;;;;;;22.00;31.70;;;;;;5033035;28;19925;-51
2023/12/08 05:53:13;;;;;;;;;;;22.10;31.70;;;;;;5016321;28;20004;-55
2023/12/08 05:55:40;;;;;;;;;;;22.10;31.60;;;;;;5032979;28;20386;-54
2023/12/08 05:58:07;;;;;;;;;;;22.10;31.50;;;;;;5033433;28;19972;-52
2023/12/08 06:00:34;;;;;;;;;;;22.20;31.50;;;;;;5032660;28;19925;-54
2023/12/08 06:03:01;;;;;;;;;;;22.20;31.50;;;;;;5032725;28;19925;-54
2023/12/08 06:05:28;;;;;;;;;;;22.20;31.50;;;;;;5022098;28;20009;-52
2023/12/08 06:07:55;;;;;;;;;;;22.20;31.50;;;;;;5004556;28;19965;-49
2023/12/08 06:10:23;;;;;;;;;;;22.20;31.60;;;;;;5009114;28;19933;-53
2023/12/08 06:12:52;;;;;;;;;;;22.30;31.70;;;;;;5002474;28;19972;-52
2023/12/08 06:15:19;;;;;;;;;;;22.40;31.80;;;;;;5001340;28;19929;-57
2023/12/08 06:17:46;;;;;;;;;;;22.40;31.90;;;;;;4997715;28;20059;-51
2023/12/08 06:20:14;;;;;;;;;;;22.50;32.00;;;;;;4996600;28;19937;-54
2023/12/08 06:22:41;;;;;;;;;;;22.50;31.80;;;;;;5004713;28;19925;-53
2023/12/08 06:25:08;;;;;;;;;;;22.60;32.20;;;;;;5007121;28;19925;-54
2023/12/08 06:27:35;;;;;;;;;;;22.50;31.50;;;;;;5009760;28;19956;-49
2023/12/08 06:30:04;;;;;;;;;;;22.60;31.60;;;;;;5006565;28;19984;-55
2023/12/08 06:32:31;;;;;;;;;;;22.60;31.60;;;;;;5004457;28;19991;-51
2023/12/08 06:34:59;;;;;;;;;;;22.70;31.80;;;;;;5001582;28;20448;-55
2023/12/08 06:37:26;;;;;;;;;;;22.70;31.60;;;;;;4999519;28;19941;-56
2023/12/08 06:39:54;;;;;;;;;;;22.80;31.50;;;;;;5003393;28;20220;-55
2023/12/08 06:42:22;;;;;;;;;;;22.80;31.40;;;;;;5006264;28;19937;-52
2023/12/08 06:44:49;;;;;;;;;;;22.90;31.50;;;;;;5002127;28;19929;-55
2023/12/08 06:47:16;;;;;;;;;;;22.90;31.40;;;;;;5003979;28;20406;-53
2023/12/08 06:49:43;;;;;;;;;;;22.90;31.30;;;;;;4992876;28;20297;-53
2023/12/08 06:52:10;;;;;;;;;;;22.90;31.30;;;;;;5010624;28;19934;-51
2023/12/08 06:54:37;;;;;;;;;;;22.90;31.30;;;;;;5006887;28;19972;-52
2023/12/08 06:57:04;;;;;;;;;;;22.90;31.90;;;;;;4989036;28;20008;-52
2023/12/08 06:59:31;;;;;;;;;;;23.00;31.20;;;;;;5002202;28;20084;-53
2023/12/08 07:01:58;;;;;;;;;;;23.00;31.20;;;;;;5009046;28;19925;-53
2023/12/08 07:04:25;;;;;;;;;;;23.10;31.20;;;;;;5004613;28;20024;-53
2023/12/08 07:06:52;;;;;;;;;;;23.10;31.20;;;;;;5007834;28;19987;-51
2023/12/08 07:09:19;;;;;;;;;;;23.20;31.30;;;;;;5003654;28;19933;-50
2023/12/08 07:11:46;;;;;;;;;;;23.20;31.30;;;;;;4998230;28;19934;-55
2023/12/08 07:14:13;;;;;;;;;;;23.20;31.30;;;;;;4999003;28;20406;-49
2023/12/08 07:16:43;;;;;;;;;;;23.30;31.40;;;;;;5004404;28;20007;-51
2023/12/08 07:19:10;;;;;;;;;;;23.30;31.50;;;;;;5008172;28;19940;-50
2023/12/08 07:21:42;;;;;;;;;;;23.40;31.50;;;;;;4990170;28;19933;-53
2023/12/08 07:24:10;;;;;;;;;;;23.40;31.60;;;;;;4999804;28;19930;-51
2023/12/08 07:26:37;;;;;;;;;;;23.40;31.60;;;;;;5002751;28;19930;-54
2023/12/08 07:29:04;;;;;;;;;;;23.50;31.60;;;;;;5003631;28;19933;-51
2023/12/08 07:31:31;;;;;;;;;;;23.50;31.70;;;;;;5002297;28;19937;-53
2023/12/08 07:33:58;;;;;;;;;;;23.50;31.20;;;;;;5002631;28;19926;-55
2023/12/08 07:36:25;;;;;;;;;;;23.60;31.10;;;;;;5000729;28;19940;-50
2023/12/08 07:38:52;;;;;;;;;;;23.60;31.10;;;;;;5001048;28;20548;-53
2023/12/08 07:41:19;;;;;;;;;;;23.70;31.20;;;;;;5002754;28;19932;-47
2023/12/08 07:43:48;;;;;;;;;;;23.70;31.10;;;;;;4989580;28;19957;-52
2023/12/08 07:46:15;;;;;;;;;;;23.70;31.00;;;;;;5006273;28;20387;-51
2023/12/08 07:48:42;;;;;;;;;;;23.70;30.80;;;;;;5013571;28;20770;-52
2023/12/08 07:51:10;;;;;;;;;;;23.80;30.90;;;;;;4998179;28;19933;-53
2023/12/08 07:53:37;;;;;;;;;;;23.80;30.90;;;;;;5003297;28;19975;-54
2023/12/08 07:56:04;;;;;;;;;;;23.90;30.90;;;;;;5001535;28;19925;-54
2023/12/08 07:58:32;;;;;;;;;;;23.90;30.80;;;;;;5003257;28;19936;-54
2023/12/08 08:00:59;;;;;;;;;;;23.90;30.80;;;;;;4998431;28;20375;-53
2023/12/08 08:03:27;;;;;;;;;;;23.90;30.80;;;;;;4986120;28;19976;-52
2023/12/08 08:05:54;;;;;;;;;;;23.90;30.80;;;;;;5002446;28;19939;-49
2023/12/08 08:08:21;;;;;;;;;;;24.00;30.80;;;;;;4997356;28;19956;-48
2023/12/08 08:10:48;;;;;;;;;;;24.00;30.80;;;;;;5001115;28;19979;-54
2023/12/08 08:13:15;;;;;;;;;;;24.00;30.80;;;;;;5001112;28;19975;-52
2023/12/08 08:15:43;;;;;;;;;;;24.00;31.30;;;;;;5002533;28;19968;-50
2023/12/08 08:18:10;;;;;;;;;;;24.10;30.80;;;;;;5001629;28;19926;-52
2023/12/08 08:20:37;;;;;;;;;;;24.10;30.80;;;;;;5004888;28;20346;-53
2023/12/08 08:23:04;;;;;;;;;;;24.10;30.90;;;;;;5002830;28;19940;-54
2023/12/08 08:25:31;;;;;;;;;;;24.10;30.90;;;;;;4998614;28;20052;-49
2023/12/08 08:28:00;;;;;;;;;;;24.10;30.80;;;;;;4998128;28;19961;-50
2023/12/08 08:30:27;;;;;;;;;;;24.20;30.90;;;;;;5008540;28;19956;-51
2023/12/08 08:32:54;;;;;;;;;;;24.20;30.90;;;;;;5002326;28;20426;-55
2023/12/08 08:35:21;;;;;;;;;;;24.30;31.00;;;;;;5001599;28;20023;-51
2023/12/08 08:37:48;;;;;;;;;;;24.30;31.10;;;;;;5002155;28;19937;-53
2023/12/08 08:40:15;;;;;;;;;;;24.30;31.10;;;;;;5003266;28;19992;-49
2023/12/08 08:42:42;;;;;;;;;;;24.30;30.90;;;;;;4996984;28;20569;-52
2023/12/08 08:45:09;;;;;;;;;;;24.30;31.20;;;;;;5003690;28;20032;-52
2023/12/08 08:47:36;;;;;;;;;;;24.30;31.30;;;;;;4997747;28;19929;-56
2023/12/08 08:50:04;;;;;;;;;;;24.40;31.20;;;;;;5000959;28;20422;-54
2023/12/08 08:52:35;;;;;;;;;;;24.40;31.20;;;;;;5003339;28;20116;-53
2023/12/08 08:55:03;;;;;;;;;;;24.40;31.20;;;;;;5000919;28;19925;-56
2023/12/08 08:57:31;;;;;;;;;;;24.50;31.10;;;;;;5003254;28;19925;-51
2023/12/08 08:59:58;;;;;;;;;;;24.50;31.10;;;;;;5000280;28;19979;-51
2023/12/08 09:02:27;;;;;;;;;;;24.50;31.00;;;;;;4999203;28;19936;-49
2023/12/08 09:04:54;;;;;;;;;;;24.50;30.80;;;;;;5004526;28;19961;-52
2023/12/08 09:07:22;;;;;;;;;;;24.60;30.70;;;;;;4997454;28;20023;-55
2023/12/08 09:09:50;;;;;;;;;;;24.60;30.70;;;;;;4999443;28;20028;-54
2023/12/08 09:12:17;;;;;;;;;;;24.60;30.70;;;;;;5003692;28;19929;-53
2023/12/08 09:14:44;;;;;;;;;;;24.60;30.70;;;;;;4998019;28;20446;-54
2023/12/08 09:17:10;;;;;;;;;;;24.70;30.80;;;;;;4998246;28;19925;-51
2023/12/08 09:19:38;;;;;;;;;;;24.70;30.70;;;;;;4988447;28;19983;-52
2023/12/08 09:22:05;;;;;;;;;;;24.70;31.10;;;;;;4997282;28;19958;-49
2023/12/08 09:24:32;;;;;;;;;;;24.70;30.50;;;;;;5001509;28;20268;-54
2023/12/08 09:27:01;;;;;;;;;;;24.70;30.40;;;;;;4999322;28;19935;-54
2023/12/08 09:29:28;;;;;;;;;;;24.80;30.40;;;;;;5000541;28;19979;-54
2023/12/08 09:31:55;;;;;;;;;;;24.80;30.50;;;;;;5001045;28;19929;-58
2023/12/08 09:34:22;;;;;;;;;;;24.80;30.40;;;;;;4999125;28;19940;-54
2023/12/08 09:36:50;;;;;;;;;;;24.80;30.50;;;;;;4967617;28;19934;-55
2023/12/08 09:39:37;;;;;;;;;;;24.90;30.60;;;;;;4992748;28;20600;-54
2023/12/08 09:42:12;;;;;;;;;;;24.90;30.60;;;;;;4999375;28;19925;-54
2023/12/08 09:44:39;;;;;;;;;;;24.90;30.60;;;;;;4996072;28;19929;-55
2023/12/08 09:47:08;;;;;;;;;;;24.90;30.40;;;;;;4994295;28;20292;-56
2023/12/08 09:49:37;;;;;;;;;;;24.90;30.40;;;;;;4995601;28;20339;-55
2023/12/08 09:52:04;;;;;;;;;;;25.00;30.40;;;;;;4996107;28;19926;-53
2023/12/08 09:54:31;;;;;;;;;;;25.00;30.40;;;;;;4982764;28;19972;-55
2023/12/08 09:56:59;;;;;;;;;;;25.00;30.30;;;;;;4996718;28;19925;-58
2023/12/08 09:59:27;;;;;;;;;;;25.00;30.20;;;;;;5001843;28;19933;-58
2023/12/08 10:01:54;;;;;;;;;;;25.00;30.00;;;;;;4999888;28;20375;-55
2023/12/08 10:04:23;;;;;;;;;;;25.00;30.00;;;;;;4997430;28;19933;-54
2023/12/08 10:06:50;;;;;;;;;;;25.10;30.20;;;;;;4997031;28;20310;-50
2023/12/08 10:09:19;;;;;;;;;;;25.10;30.30;;;;;;5001146;28;20016;-54
2023/12/08 10:11:46;;;;;;;;;;;25.10;30.50;;;;;;5001678;28;20346;-54
2023/12/08 10:14:14;;;;;;;;;;;25.10;30.40;;;;;;5008377;28;20044;-52
2023/12/08 10:16:43;;;;;;;;;;;25.10;30.20;;;;;;5003603;28;19936;-51
2023/12/08 10:19:10;;;;;;;;;;;25.10;30.20;;;;;;5013892;28;20033;-52
2023/12/08 10:21:37;;;;;;;;;;;25.10;30.20;;;;;;4989002;28;19930;-50
2023/12/08 10:24:08;;;;;;;;;;;25.10;30.30;;;;;;5008944;28;20161;-52
2023/12/08 10:26:35;;;;;;;;;;;25.10;30.30;;;;;;5007467;28;20355;-48
2023/12/08 10:29:02;;;;;;;;;;;25.10;30.20;;;;;;5008016;28;20399;-52
2023/12/08 10:31:29;;;;;;;;;;;25.10;30.30;;;;;;5005450;28;19976;-57
2023/12/08 10:33:57;;;;;;;;;;;25.10;30.90;;;;;;5004891;28;19969;-55
2023/12/08 10:36:24;;;;;;;;;;;25.10;30.50;;;;;;5007659;28;19983;-52
2023/12/08 10:38:52;;;;;;;;;;;25.20;30.80;;;;;;5006234;28;20345;-54
2023/12/08 10:41:19;;;;;;;;;;;25.20;31.20;;;;;;5002095;28;19930;-53
2023/12/08 10:43:46;;;;;;;;;;;25.20;31.40;;;;;;5002704;28;20029;-55
2023/12/08 10:46:13;;;;;;;;;;;25.30;31.70;;;;;;5004560;28;20402;-53
2023/12/08 10:48:40;;;;;;;;;;;25.30;31.80;;;;;;5002201;28;20433;-56
2023/12/08 10:51:13;;;;;;;;;;;25.40;32.10;;;;;;5002406;28;19934;-53
2023/12/08 10:53:41;;;;;;;;;;;25.40;31.80;;;;;;5000028;28;19934;-55
2023/12/08 10:56:10;;;;;;;;;;;25.50;32.00;;;;;;4999502;28;20298;-54
2023/12/08 10:58:40;;;;;;;;;;;25.50;32.30;;;;;;5002383;28;19968;-51
2023/12/08 11:01:12;;;;;;;;;;;25.60;32.30;;;;;;5004728;28;20408;-56
2023/12/08 11:03:41;;;;;;;;;;;25.60;32.30;;;;;;5001178;28;19933;-54
2023/12/08 11:06:21;;;;;;;;;;;25.70;31.90;;;;;;4990014;28;19929;-52
2023/12/08 11:08:54;;;;;;;;;;;25.70;31.20;;;;;;4997697;28;19936;-54
2023/12/08 11:11:23;;;;;;;;;;;25.70;30.40;;;;;;5000775;28;20343;-52
2023/12/08 11:13:53;;;;;;;;;;;25.70;30.10;;;;;;5001480;28;20365;-53
2023/12/08 11:16:27;;;;;;;;;;;25.70;30.00;;;;;;5000264;28;19949;-54
2023/12/08 11:18:55;;;;;;;;;;;25.70;30.70;;;;;;5002002;28;20338;-52
2023/12/08 11:21:23;;;;;;;;;;;25.70;30.00;;;;;;5000539;28;19934;-51
2023/12/08 11:23:51;;;;;;;;;;;25.70;30.00;;;;;;4999182;28;20013;-55
2023/12/08 11:26:38;;;;;;;;;;;25.70;30.10;;;;;;4996679;28;20028;-50
2023/12/08 11:29:25;;;;;;;;;;;25.80;30.30;;;;;;4976156;28;20391;-53
2023/12/08 11:32:10;;;;;;;;;;;25.80;30.30;;;;;;4985428;28;20017;-53
2023/12/08 11:34:42;;;;;;;;;;;25.80;30.10;;;;;;4996742;28;20399;-51
2023/12/08 11:37:10;;;;;;;;;;;25.80;30.00;;;;;;4999540;28;19940;-50
2023/12/08 11:39:38;;;;;;;;;;;25.80;30.00;;;;;;4998302;28;20295;-51
2023/12/08 11:42:16;;;;;;;;;;;25.90;29.90;;;;;;4998011;28;19984;-54
2023/12/08 11:44:45;;;;;;;;;;;25.90;29.80;;;;;;4997651;28;19987;-53
2023/12/08 11:47:14;;;;;;;;;;;25.90;29.80;;;;;;5000819;28;19937;-51
2023/12/08 11:49:42;;;;;;;;;;;25.90;29.70;;;;;;5000366;28;19968;-53
2023/12/08 11:52:24;;;;;;;;;;;26.00;29.60;;;;;;4997285;28;19940;-52
2023/12/08 11:54:59;;;;;;;;;;;26.00;29.60;;;;;;4999434;28;19941;-56
2023/12/08 11:57:42;;;;;;;;;;;26.00;29.50;;;;;;5002224;28;20329;-52
2023/12/08 12:00:11;;;;;;;;;;;26.00;29.50;;;;;;5001334;28;19975;-51
2023/12/08 12:02:40;;;;;;;;;;;26.00;29.50;;;;;;5000839;28;19968;-52
2023/12/08 12:05:07;;;;;;;;;;;26.00;29.60;;;;;;5003368;28;20031;-53
2023/12/08 12:07:35;;;;;;;;;;;25.90;29.50;;;;;;5002157;28;20024;-50
2023/12/08 12:10:06;;;;;;;;;;;26.00;29.60;;;;;;5002192;28;19933;-52
2023/12/08 12:12:35;;;;;;;;;;;25.90;29.60;;;;;;5000363;28;19929;-52
2023/12/08 12:15:04;;;;;;;;;;;25.90;29.70;;;;;;5002923;28;19930;-51
2023/12/08 12:17:31;;;;;;;;;;;25.90;29.70;;;;;;5003977;28;20003;-51
2023/12/08 12:19:58;;;;;;;;;;;25.90;29.70;;;;;;5005330;28;20048;-54
2023/12/08 12:22:25;;;;;;;;;;;25.90;29.80;;;;;;5005902;28;20817;-52
2023/12/08 12:24:52;;;;;;;;;;;25.90;29.90;;;;;;5002333;28;20398;-53
2023/12/08 12:27:19;;;;;;;;;;;25.90;30.00;;;;;;5002039;28;19987;-49
2023/12/08 12:29:46;;;;;;;;;;;25.90;30.00;;;;;;5002223;28;19926;-55
2023/12/08 12:32:14;;;;;;;;;;;25.90;30.00;;;;;;5004491;28;20499;-55
2023/12/08 12:34:40;;;;;;;;;;;25.90;30.00;;;;;;5007304;28;20276;-50
2023/12/08 12:37:08;;;;;;;;;;;25.90;30.00;;;;;;4981006;28;19925;-55
2023/12/08 12:39:35;;;;;;;;;;;25.90;29.90;;;;;;5007576;28;19926;-52
2023/12/08 12:42:02;;;;;;;;;;;25.90;29.70;;;;;;4999629;28;19979;-52
2023/12/08 12:44:40;;;;;;;;;;;25.90;29.50;;;;;;5003330;28;19929;-51
2023/12/08 12:47:09;;;;;;;;;;;25.90;29.70;;;;;;5001691;28;19950;-52
2023/12/08 12:49:37;;;;;;;;;;;25.90;29.60;;;;;;5002838;28;20322;-52
2023/12/08 12:52:25;;;;;;;;;;;26.00;29.60;;;;;;5001193;28;19985;-51
2023/12/08 12:54:55;;;;;;;;;;;26.00;29.70;;;;;;5001896;28;19929;-50
2023/12/08 12:57:44;;;;;;;;;;;26.00;29.70;;;;;;5002014;28;19932;-55
2023/12/08 13:00:12;;;;;;;;;;;25.90;29.70;;;;;;4977381;28;19937;-54
2023/12/08 13:02:39;;;;;;;;;;;25.90;29.70;;;;;;5004068;28;19929;-53
2023/12/08 13:05:07;;;;;;;;;;;25.90;29.70;;;;;;4981838;28;19933;-55
2023/12/08 13:07:35;;;;;;;;;;;25.90;29.70;;;;;;5003767;28;19976;-52
2023/12/08 13:10:04;;;;;;;;;;;25.90;29.80;;;;;;5002659;28;19961;-55
2023/12/08 13:12:31;;;;;;;;;;;26.00;29.90;;;;;;5003262;28;20405;-53
2023/12/08 13:14:59;;;;;;;;;;;26.00;29.90;;;;;;5004047;28;20024;-56
2023/12/08 13:17:31;;;;;;;;;;;26.00;29.90;;;;;;5002804;28;19925;-54
2023/12/08 13:19:59;;;;;;;;;;;25.90;29.90;;;;;;4998477;28;19964;-55
2023/12/08 13:22:26;;;;;;;;;;;26.00;29.90;;;;;;5006620;28;19925;-54
2023/12/08 13:24:53;;;;;;;;;;;26.00;30.00;;;;;;5018693;28;19980;-50
2023/12/08 13:27:20;;;;;;;;;;;26.00;30.00;;;;;;5006654;28;19930;-51
2023/12/08 13:29:47;;;;;;;;;;;25.90;30.00;;;;;;5013822;28;19968;-52
2023/12/08 13:32:14;;;;;;;;;;;25.90;30.00;;;;;;4995380;28;19926;-54
2023/12/08 13:34:42;;;;;;;;;;;25.90;30.10;;;;;;5002256;28;20032;-54
2023/12/08 13:37:09;;;;;;;;;;;25.90;30.20;;;;;;5002098;28;20290;-54
2023/12/08 13:39:36;;;;;;;;;;;25.90;30.40;;;;;;5003023;28;19925;-54
2023/12/08 13:42:04;;;;;;;;;;;25.90;30.50;;;;;;5006488;28;19976;-56
2023/12/08 13:44:31;;;;;;;;;;;25.80;30.60;;;;;;5004295;28;20354;-55
2023/12/08 13:46:58;;;;;;;;;;;25.80;30.90;;;;;;4999069;28;19933;-54
2023/12/08 13:49:25;;;;;;;;;;;25.80;31.50;;;;;;5007986;28;19984;-51
2023/12/08 13:51:52;;;;;;;;;;;25.80;31.90;;;;;;5008860;28;19926;-54
2023/12/08 13:54:19;;;;;;;;;;;25.80;31.90;;;;;;5009705;28;19933;-54
2023/12/08 13:56:46;;;;;;;;;;;25.70;31.70;;;;;;5006830;28;19925;-54
2023/12/08 13:59:13;;;;;;;;;;;25.70;31.50;;;;;;5000634;28;19926;-55
2023/12/08 14:01:40;;;;;;;;;;;25.70;32.00;;;;;;5011432;28;20334;-53
2023/12/08 14:04:07;;;;;;;;;;;25.70;32.30;;;;;;4982570;28;20005;-54
2023/12/08 14:06:34;;;;;;;;;;;25.70;32.00;;;;;;4989297;28;20056;-53
2023/12/08 14:09:02;;;;;;;;;;;25.70;31.90;;;;;;4992048;28;19936;-55
2023/12/08 14:11:29;;;;;;;;;;;25.70;32.20;;;;;;5000740;28;19957;-51
2023/12/08 14:13:56;;;;;;;;;;;25.60;32.50;;;;;;4989542;28;20382;-53
2023/12/08 14:16:25;;;;;;;;;;;25.60;32.60;;;;;;5007097;28;19932;-52
2023/12/08 14:18:52;;;;;;;;;;;25.60;33.10;;;;;;5005362;28;19926;-50
2023/12/08 14:21:20;;;;;;;;;;;25.60;34.30;;;;;;4982653;28;20024;-52